METAR Data
IDs: Format: Raw Decoded Include TAF

Data at: 2147 UTC 01 Dec 2021

LHKE 012115Z 21010KT CAVOK 08/02 Q1004 NOSIG RMK BLU